Time;durP1;ratioP1;P1;durP2;ratioP2;P2;SDS_P1;SDS_P2;PMS_P1;PMS_P2;Temp;Humidity;BMP_temperature;BMP_pressure;BME280_temperature;BME280_humidity;BME280_pressure;Samples;Min_cycle;Max_cycle;Signal;HPM_P1;HPM_P2
2023/12/26 00:01:11;;;;;;;2.10;0.77;;;14.40;99.90;;;;;;5021589;28;20950;-73
2023/12/26 00:03:36;;;;;;;1.30;0.50;;;14.40;99.90;;;;;;5030256;28;20599;-73
2023/12/26 00:06:06;;;;;;;1.10;0.40;;;14.40;99.90;;;;;;5031008;28;20632;-73
2023/12/26 00:08:32;;;;;;;1.10;0.40;;;14.30;99.90;;;;;;5030805;28;20300;-73
2023/12/26 00:10:58;;;;;;;1.10;0.40;;;14.30;99.90;;;;;;5031129;28;20711;-73
2023/12/26 00:13:24;;;;;;;1.10;0.40;;;14.20;99.90;;;;;;5047060;28;20584;-73
2023/12/26 00:15:51;;;;;;;1.47;0.37;;;14.20;99.90;;;;;;5030922;28;20631;-73
2023/12/26 00:18:17;;;;;;;1.27;0.40;;;14.20;99.90;;;;;;5030736;28;20189;-73
2023/12/26 00:20:43;;;;;;;1.10;0.40;;;14.20;99.90;;;;;;5031016;28;20654;-73
2023/12/26 00:23:10;;;;;;;1.10;0.40;;;14.20;99.90;;;;;;5030241;28;20651;-74
2023/12/26 00:25:36;;;;;;;1.27;0.50;;;14.20;99.90;;;;;;5020880;28;20612;-73
2023/12/26 00:28:03;;;;;;;1.37;0.60;;;14.20;99.90;;;;;;5037377;28;20631;-73
2023/12/26 00:30:29;;;;;;;1.30;0.60;;;14.20;99.90;;;;;;5031703;28;21137;-73
2023/12/26 00:32:55;;;;;;;1.30;0.50;;;14.10;99.90;;;;;;5012227;28;20841;-73
2023/12/26 00:35:21;;;;;;;1.10;0.40;;;14.10;99.90;;;;;;5039789;28;20608;-73
2023/12/26 00:37:47;;;;;;;1.20;0.50;;;14.20;99.90;;;;;;5021640;28;20185;-73
2023/12/26 00:40:13;;;;;;;1.50;0.40;;;14.10;99.90;;;;;;5012912;28;20193;-73
2023/12/26 00:42:40;;;;;;;1.23;0.40;;;14.10;99.90;;;;;;5029729;28;20189;-73
2023/12/26 00:45:06;;;;;;;1.23;0.40;;;14.10;99.90;;;;;;5012737;28;20621;-73
2023/12/26 00:47:33;;;;;;;1.60;0.50;;;14.10;99.90;;;;;;5038437;28;20631;-73
2023/12/26 00:49:59;;;;;;;1.63;0.40;;;14.10;99.90;;;;;;5039625;28;21028;-74
2023/12/26 00:52:25;;;;;;;1.67;0.43;;;14.10;99.90;;;;;;4979563;28;20617;-73
2023/12/26 00:54:52;;;;;;;3.53;0.40;;;14.10;99.90;;;;;;5031208;28;20640;-72
2023/12/26 00:57:18;;;;;;;1.10;0.40;;;14.10;99.90;;;;;;5016903;28;20634;-73
2023/12/26 00:59:45;;;;;;;1.77;0.40;;;14.10;99.90;;;;;;5034599;28;20587;-73
2023/12/26 01:02:11;;;;;;;1.67;0.73;;;14.10;99.90;;;;;;5016237;28;20588;-73
2023/12/26 01:04:36;;;;;;;1.00;0.40;;;14.10;99.90;;;;;;5034232;28;20626;-73
2023/12/26 01:07:03;;;;;;;1.87;0.40;;;14.10;99.90;;;;;;5015987;28;20627;-73
2023/12/26 01:09:29;;;;;;;1.00;0.40;;;14.10;99.90;;;;;;5000350;28;21053;-73
2023/12/26 01:11:55;;;;;;;1.00;0.30;;;14.10;99.90;;;;;;5016429;28;20584;-73
2023/12/26 01:14:21;;;;;;;1.70;0.70;;;14.10;99.90;;;;;;5015640;28;20570;-73
2023/12/26 01:16:47;;;;;;;1.20;0.50;;;14.00;99.90;;;;;;5020453;28;20588;-73
2023/12/26 01:19:13;;;;;;;1.10;0.40;;;14.10;99.90;;;;;;5036438;28;20591;-73
2023/12/26 01:21:39;;;;;;;1.10;0.40;;;14.00;99.90;;;;;;5036397;28;20615;-73
2023/12/26 01:24:05;;;;;;;1.30;0.40;;;14.00;99.90;;;;;;5036435;28;20623;-73
2023/12/26 01:26:32;;;;;;;1.30;0.40;;;14.00;99.90;;;;;;5054178;28;21211;-73
2023/12/26 01:28:58;;;;;;;1.00;0.40;;;14.00;99.90;;;;;;5053440;28;21014;-73
2023/12/26 01:31:24;;;;;;;1.43;0.50;;;14.00;99.90;;;;;;5035908;28;20590;-73
2023/12/26 01:33:51;;;;;;;1.10;0.40;;;14.00;99.90;;;;;;5035282;28;20591;-73
2023/12/26 01:36:17;;;;;;;1.30;0.40;;;14.00;99.90;;;;;;5035631;28;20197;-73
2023/12/26 01:38:43;;;;;;;1.10;0.40;;;14.00;99.90;;;;;;5015802;28;20695;-73
2023/12/26 01:41:08;;;;;;;1.53;0.40;;;14.00;99.90;;;;;;5032290;28;20208;-72
2023/12/26 01:43:34;;;;;;;1.20;0.40;;;14.00;99.90;;;;;;5043575;28;20669;-72
2023/12/26 01:46:02;;;;;;;1.10;0.40;;;14.00;99.90;;;;;;5023539;28;20801;-73
2023/12/26 01:48:29;;;;;;;1.07;0.37;;;14.00;99.90;;;;;;5033474;28;20293;-73
2023/12/26 01:50:56;;;;;;;2.03;0.50;;;14.00;99.90;;;;;;4999472;28;20575;-73
2023/12/26 01:53:22;;;;;;;1.93;0.43;;;14.00;99.90;;;;;;5015314;28;20577;-73
2023/12/26 01:55:47;;;;;;;1.40;0.47;;;14.00;99.90;;;;;;5010544;28;21013;-73
2023/12/26 01:58:13;;;;;;;1.10;0.40;;;14.00;99.90;;;;;;5018608;28;20638;-73
2023/12/26 02:00:40;;;;;;;1.10;0.40;;;14.00;99.90;;;;;;5015851;28;20205;-73
2023/12/26 02:03:07;;;;;;;1.50;0.43;;;14.00;99.90;;;;;;4998657;28;20333;-73
2023/12/26 02:05:33;;;;;;;1.53;0.43;;;14.00;99.90;;;;;;4998602;28;21467;-74
2023/12/26 02:07:59;;;;;;;1.87;0.40;;;14.00;99.90;;;;;;5035977;28;20261;-73
2023/12/26 02:10:25;;;;;;;1.10;0.40;;;14.00;99.90;;;;;;5014917;28;20603;-73
2023/12/26 02:12:51;;;;;;;1.37;0.40;;;14.00;99.90;;;;;;5015017;28;20592;-73
2023/12/26 02:15:18;;;;;;;1.30;0.40;;;14.00;99.90;;;;;;4998856;28;20201;-72
2023/12/26 02:17:44;;;;;;;1.40;0.40;;;14.00;99.90;;;;;;5015231;28;20589;-72
2023/12/26 02:20:10;;;;;;;1.80;0.50;;;14.00;99.90;;;;;;5023374;28;20599;-73
2023/12/26 02:22:36;;;;;;;1.17;0.40;;;14.00;99.90;;;;;;4997926;28;20600;-73
2023/12/26 02:25:02;;;;;;;1.13;0.50;;;13.90;99.90;;;;;;5014877;28;21121;-73
2023/12/26 02:27:29;;;;;;;1.50;0.40;;;13.90;99.90;;;;;;5014708;28;20212;-73
2023/12/26 02:29:57;;;;;;;1.27;0.40;;;13.90;99.90;;;;;;4998668;28;20180;-73
2023/12/26 02:32:25;;;;;;;1.50;0.40;;;13.80;99.90;;;;;;5014356;28;21124;-73
2023/12/26 02:34:55;;;;;;;1.10;0.40;;;13.80;99.90;;;;;;5032575;28;20670;-73
2023/12/26 02:37:24;;;;;;;1.30;0.50;;;13.80;99.90;;;;;;4998599;28;20952;-73
2023/12/26 02:39:51;;;;;;;1.40;0.40;;;13.70;99.90;;;;;;4998587;28;20585;-72
2023/12/26 02:42:21;;;;;;;1.73;0.50;;;13.70;99.90;;;;;;5005361;28;20583;-73
2023/12/26 02:44:46;;;;;;;1.20;0.40;;;13.60;99.90;;;;;;5031364;28;20719;-73
2023/12/26 02:47:13;;;;;;;1.67;0.50;;;13.60;99.90;;;;;;5022809;28;20726;-73
2023/12/26 02:49:39;;;;;;;1.50;0.50;;;13.60;99.90;;;;;;5006402;28;20585;-73
2023/12/26 02:52:05;;;;;;;2.23;0.50;;;13.60;99.90;;;;;;5014503;28;20589;-73
2023/12/26 02:54:31;;;;;;;1.77;0.50;;;13.50;99.90;;;;;;5039865;28;20219;-73
2023/12/26 02:56:57;;;;;;;1.20;0.40;;;13.50;99.90;;;;;;5032027;28;21141;-73
2023/12/26 02:59:22;;;;;;;1.60;0.40;;;13.50;99.90;;;;;;4998410;28;20204;-73
2023/12/26 03:01:48;;;;;;;2.60;0.47;;;13.50;99.90;;;;;;5032171;28;20248;-72
2023/12/26 03:04:14;;;;;;;1.40;0.40;;;13.50;99.90;;;;;;5014025;28;20185;-74
2023/12/26 03:06:40;;;;;;;1.20;0.40;;;13.40;99.90;;;;;;5022525;28;21033;-74
2023/12/26 03:09:06;;;;;;;1.30;0.50;;;13.40;99.90;;;;;;5014478;28;20643;-74
2023/12/26 03:11:32;;;;;;;1.20;0.40;;;13.40;99.90;;;;;;5013596;28;20591;-73
2023/12/26 03:14:01;;;;;;;1.10;0.43;;;13.30;99.90;;;;;;5013571;28;20920;-73
2023/12/26 03:16:27;;;;;;;2.00;0.40;;;13.30;99.90;;;;;;5014271;28;20361;-73
2023/12/26 03:18:53;;;;;;;1.10;0.40;;;13.20;99.90;;;;;;5042746;28;20952;-73
2023/12/26 03:21:20;;;;;;;1.63;0.40;;;13.20;99.90;;;;;;5044049;28;20646;-73
2023/12/26 03:23:47;;;;;;;1.30;0.50;;;13.10;99.90;;;;;;5031173;28;20518;-73
2023/12/26 03:26:12;;;;;;;1.40;0.40;;;13.10;99.90;;;;;;4997427;28;20620;-73
2023/12/26 03:28:38;;;;;;;1.27;0.40;;;13.10;99.90;;;;;;5033553;28;20642;-73
2023/12/26 03:31:06;;;;;;;1.20;0.47;;;13.00;99.90;;;;;;5003818;28;20596;-73
2023/12/26 03:33:36;;;;;;;1.10;0.40;;;13.00;99.90;;;;;;5013300;28;20580;-73
2023/12/26 03:36:02;;;;;;;3.43;0.50;;;12.90;99.90;;;;;;5031415;28;20747;-73
2023/12/26 03:38:29;;;;;;;1.20;0.50;;;12.90;99.90;;;;;;5031446;28;20592;-73
2023/12/26 03:40:55;;;;;;;1.10;0.40;;;12.90;99.90;;;;;;5005740;28;20586;-74
2023/12/26 03:43:21;;;;;;;1.40;0.40;;;12.90;99.90;;;;;;5012711;28;20268;-73
2023/12/26 03:45:49;;;;;;;1.17;0.40;;;12.80;99.90;;;;;;4996963;28;20648;-73
2023/12/26 03:48:15;;;;;;;1.20;0.40;;;12.80;99.90;;;;;;4997301;28;20636;-73
2023/12/26 03:50:41;;;;;;;1.00;0.40;;;12.70;99.90;;;;;;4999133;28;20635;-73
2023/12/26 03:53:07;;;;;;;1.10;0.40;;;12.70;99.90;;;;;;5027004;28;20735;-73
2023/12/26 03:55:34;;;;;;;1.07;0.40;;;12.70;99.90;;;;;;4997419;28;20200;-73
2023/12/26 03:58:00;;;;;;;1.30;0.40;;;12.70;99.90;;;;;;5013657;28;20264;-73
2023/12/26 04:00:28;;;;;;;1.67;0.40;;;12.70;99.90;;;;;;5031109;28;20589;-74
2023/12/26 04:02:54;;;;;;;1.40;0.40;;;12.60;99.90;;;;;;5016805;28;20596;-73
2023/12/26 04:05:19;;;;;;;1.07;0.40;;;12.60;99.90;;;;;;5017664;28;20647;-73
2023/12/26 04:07:46;;;;;;;1.10;0.40;;;12.70;99.90;;;;;;4996665;28;20635;-73
2023/12/26 04:10:12;;;;;;;1.57;0.40;;;12.60;99.90;;;;;;4996811;28;20219;-73
2023/12/26 04:12:37;;;;;;;1.00;0.40;;;12.60;99.90;;;;;;4996720;28;20577;-73
2023/12/26 04:15:04;;;;;;;3.30;0.50;;;12.60;99.90;;;;;;5003840;28;20655;-73
2023/12/26 04:17:30;;;;;;;1.10;0.40;;;12.60;99.90;;;;;;5002138;28;21079;-73
2023/12/26 04:19:55;;;;;;;1.40;0.40;;;12.70;99.90;;;;;;5015852;28;20603;-73
2023/12/26 04:22:21;;;;;;;2.40;0.50;;;12.70;99.90;;;;;;5014219;28;20263;-73
2023/12/26 04:24:47;;;;;;;1.00;0.40;;;12.70;99.90;;;;;;5024172;28;20207;-73
2023/12/26 04:27:13;;;;;;;1.37;0.50;;;12.70;99.90;;;;;;5032841;28;20678;-73
2023/12/26 04:29:39;;;;;;;1.57;0.40;;;12.70;99.90;;;;;;5041141;28;20595;-73
2023/12/26 04:32:06;;;;;;;1.20;0.40;;;12.70;99.90;;;;;;5044833;28;20166;-73
2023/12/26 04:34:32;;;;;;;1.43;0.40;;;12.70;99.90;;;;;;5021239;28;20208;-74
2023/12/26 04:36:57;;;;;;;1.40;0.40;;;12.70;99.90;;;;;;5008527;28;20627;-73
2023/12/26 04:39:24;;;;;;;1.20;0.40;;;12.70;99.90;;;;;;5017122;28;20682;-73
2023/12/26 04:41:49;;;;;;;1.10;0.40;;;12.70;99.90;;;;;;5004516;28;21165;-73
2023/12/26 04:44:15;;;;;;;1.30;0.40;;;12.70;99.90;;;;;;4979899;28;20619;-73
2023/12/26 04:46:41;;;;;;;1.07;0.40;;;12.70;99.90;;;;;;5038696;28;20577;-73
2023/12/26 04:49:07;;;;;;;1.53;0.40;;;12.70;99.90;;;;;;5012729;28;21201;-73
2023/12/26 04:51:33;;;;;;;1.33;0.40;;;12.70;99.90;;;;;;5030166;28;20170;-73
2023/12/26 04:53:59;;;;;;;1.10;0.40;;;12.80;99.90;;;;;;4995611;28;20173;-73
2023/12/26 04:56:26;;;;;;;1.30;0.40;;;12.80;99.90;;;;;;5012611;28;20601;-73
2023/12/26 04:58:52;;;;;;;1.10;0.50;;;12.80;99.90;;;;;;5004423;28;20178;-73
2023/12/26 05:01:20;;;;;;;2.03;0.50;;;12.80;99.90;;;;;;5002980;28;20584;-73
2023/12/26 05:03:46;;;;;;;1.20;0.40;;;12.80;99.90;;;;;;5013488;28;20591;-73
2023/12/26 05:06:17;;;;;;;1.50;0.53;;;12.80;99.90;;;;;;5017993;28;20643;-73
2023/12/26 05:08:43;;;;;;;1.63;0.60;;;12.90;99.90;;;;;;5030574;28;20696;-73
2023/12/26 05:11:09;;;;;;;1.67;0.50;;;12.80;99.90;;;;;;5020922;28;20580;-73
2023/12/26 05:13:36;;;;;;;1.20;0.60;;;12.80;99.90;;;;;;5012229;28;20173;-73
2023/12/26 05:16:03;;;;;;;1.77;0.50;;;12.80;99.90;;;;;;5015746;28;20213;-73
2023/12/26 05:18:32;;;;;;;1.30;0.40;;;12.80;99.90;;;;;;5015663;28;20595;-73
2023/12/26 05:20:59;;;;;;;1.30;0.50;;;12.80;99.90;;;;;;5015487;28;20606;-73
2023/12/26 05:23:25;;;;;;;1.50;0.50;;;12.80;99.90;;;;;;5024159;28;20626;-74
2023/12/26 05:25:51;;;;;;;1.80;0.80;;;12.80;99.90;;;;;;5015207;28;20619;-73
2023/12/26 05:28:17;;;;;;;3.40;0.97;;;12.90;99.90;;;;;;5048912;28;20647;-73
2023/12/26 05:30:43;;;;;;;1.70;0.50;;;12.90;99.90;;;;;;5041764;28;20616;-73
2023/12/26 05:33:09;;;;;;;1.30;0.53;;;12.90;99.90;;;;;;5048013;28;20169;-73
2023/12/26 05:35:35;;;;;;;2.43;0.60;;;12.90;99.90;;;;;;5031729;28;20614;-73
2023/12/26 05:38:01;;;;;;;1.20;0.50;;;12.90;99.90;;;;;;5015441;28;20618;-73
2023/12/26 05:40:27;;;;;;;1.63;0.60;;;12.90;99.90;;;;;;5032363;28;20648;-73
2023/12/26 05:42:53;;;;;;;2.95;0.60;;;12.90;99.90;;;;;;5051642;28;20587;-74
2023/12/26 05:45:18;;;;;;;1.57;0.70;;;12.90;99.90;;;;;;5019205;28;20593;-73
2023/12/26 05:47:44;;;;;;;1.23;0.60;;;12.90;99.90;;;;;;5052327;28;20254;-73
2023/12/26 05:50:10;;;;;;;3.27;1.10;;;12.90;99.90;;;;;;5018890;28;20631;-73
2023/12/26 05:52:36;;;;;;;2.13;0.60;;;12.90;99.90;;;;;;5018225;28;20179;-73
2023/12/26 05:55:02;;;;;;;2.40;0.60;;;12.90;99.90;;;;;;5035336;28;20607;-73
2023/12/26 05:57:28;;;;;;;3.77;0.80;;;12.90;99.90;;;;;;5043998;28;20626;-73
2023/12/26 05:59:54;;;;;;;3.10;0.60;;;12.90;99.90;;;;;;5035567;28;20616;-73
2023/12/26 06:02:20;;;;;;;2.70;0.80;;;12.90;99.90;;;;;;5018372;28;20174;-74
2023/12/26 06:04:46;;;;;;;2.80;0.73;;;13.00;99.90;;;;;;5034992;28;20635;-73
2023/12/26 06:07:12;;;;;;;1.47;0.60;;;13.00;99.90;;;;;;5018628;28;20575;-73
2023/12/26 06:09:38;;;;;;;1.90;0.70;;;13.00;99.90;;;;;;5051765;28;20678;-73
2023/12/26 06:12:05;;;;;;;3.20;0.60;;;13.00;99.90;;;;;;5035090;28;20576;-74
2023/12/26 06:14:31;;;;;;;1.53;0.77;;;13.00;99.90;;;;;;5034674;28;20177;-74
2023/12/26 06:16:59;;;;;;;2.20;0.67;;;13.00;99.90;;;;;;5035436;28;20591;-74
2023/12/26 06:19:25;;;;;;;3.20;0.67;;;13.00;99.90;;;;;;5011572;28;20570;-74
2023/12/26 06:21:51;;;;;;;2.50;0.60;;;13.00;99.90;;;;;;5017178;28;20576;-74
2023/12/26 06:24:17;;;;;;;1.60;0.60;;;13.00;99.90;;;;;;5054634;28;20582;-74
2023/12/26 06:26:42;;;;;;;3.57;1.00;;;13.00;99.90;;;;;;5043591;28;20615;-74
2023/12/26 06:29:09;;;;;;;2.57;0.73;;;13.00;99.90;;;;;;5047126;28;20201;-74
2023/12/26 06:31:34;;;;;;;1.50;0.57;;;12.90;99.90;;;;;;5015074;28;20591;-73
2023/12/26 06:34:00;;;;;;;1.60;0.60;;;12.90;99.90;;;;;;5034152;28;20533;-74
2023/12/26 06:36:30;;;;;;;1.53;0.67;;;12.90;99.90;;;;;;5044428;28;20205;-74
2023/12/26 06:39:00;;;;;;;1.20;0.60;;;12.90;99.90;;;;;;5034519;28;21160;-74
2023/12/26 06:41:30;;;;;;;2.33;0.80;;;12.90;99.90;;;;;;5018387;28;20268;-74
2023/12/26 06:43:57;;;;;;;1.93;0.70;;;12.80;99.90;;;;;;5017527;28;20204;-74
2023/12/26 06:46:23;;;;;;;3.10;0.70;;;12.80;99.90;;;;;;5018053;28;20619;-74
2023/12/26 06:48:49;;;;;;;4.10;0.90;;;12.80;99.90;;;;;;5011865;28;20976;-74
2023/12/26 06:51:16;;;;;;;3.43;0.80;;;12.80;99.90;;;;;;5031858;28;20594;-74
2023/12/26 06:53:42;;;;;;;2.33;0.70;;;12.80;99.90;;;;;;5031912;28;20609;-74
2023/12/26 06:56:08;;;;;;;2.20;0.77;;;12.80;99.90;;;;;;5018193;28;20676;-73
2023/12/26 06:58:34;;;;;;;1.60;0.53;;;12.80;99.90;;;;;;5036250;28;20612;-73
2023/12/26 07:01:01;;;;;;;1.97;0.70;;;12.80;99.90;;;;;;5014815;28;20711;-73
2023/12/26 07:03:27;;;;;;;5.00;0.80;;;12.80;99.90;;;;;;5014344;28;20585;-73
2023/12/26 07:05:52;;;;;;;3.23;0.87;;;12.80;99.90;;;;;;5014105;28;21004;-73
2023/12/26 07:08:19;;;;;;;2.37;0.63;;;12.80;99.90;;;;;;5011620;28;20299;-74
2023/12/26 07:10:46;;;;;;;2.03;0.70;;;12.80;99.90;;;;;;5033971;28;20193;-74
2023/12/26 07:13:11;;;;;;;1.80;0.70;;;12.80;99.90;;;;;;5013449;28;20628;-73
2023/12/26 07:15:38;;;;;;;3.37;1.00;;;12.80;99.90;;;;;;5029733;28;20667;-73
2023/12/26 07:18:04;;;;;;;5.13;0.90;;;12.80;99.90;;;;;;5035603;28;21067;-72
2023/12/26 07:20:29;;;;;;;3.53;0.80;;;12.80;99.90;;;;;;5043834;28;20635;-72
2023/12/26 07:22:55;;;;;;;3.37;0.70;;;12.80;99.90;;;;;;5045611;28;21072;-72
2023/12/26 07:25:21;;;;;;;1.67;0.90;;;12.80;99.90;;;;;;4997558;28;20193;-72
2023/12/26 07:27:46;;;;;;;2.73;0.80;;;12.80;99.90;;;;;;5013787;28;20205;-73
2023/12/26 07:30:12;;;;;;;1.63;0.70;;;12.80;99.90;;;;;;5031853;28;20174;-73
2023/12/26 07:32:38;;;;;;;2.50;0.97;;;12.80;99.90;;;;;;4996735;28;20835;-73
2023/12/26 07:35:04;;;;;;;2.10;0.73;;;12.80;99.90;;;;;;5031242;28;20272;-73
2023/12/26 07:37:32;;;;;;;1.60;0.70;;;12.80;99.90;;;;;;5013635;28;20699;-73
2023/12/26 07:39:58;;;;;;;3.53;0.90;;;12.80;99.90;;;;;;5031449;28;20591;-73
2023/12/26 07:42:24;;;;;;;1.70;0.73;;;12.80;99.90;;;;;;5012795;28;21030;-73
2023/12/26 07:44:49;;;;;;;2.27;0.70;;;12.80;99.90;;;;;;5013311;28;20670;-73
2023/12/26 07:47:15;;;;;;;2.20;0.90;;;12.90;99.90;;;;;;5021481;28;20986;-73
2023/12/26 07:49:41;;;;;;;3.77;0.90;;;12.90;99.90;;;;;;5039204;28;20195;-73
2023/12/26 07:52:07;;;;;;;4.03;0.80;;;12.90;99.90;;;;;;4996980;28;20576;-73
2023/12/26 07:54:40;;;;;;;3.53;0.80;;;12.90;99.90;;;;;;5030275;28;20666;-73
2023/12/26 07:57:06;;;;;;;1.77;0.70;;;12.90;99.90;;;;;;5013434;28;20683;-73
2023/12/26 07:59:32;;;;;;;1.87;0.67;;;13.00;99.90;;;;;;5037876;28;20666;-73
2023/12/26 08:01:57;;;;;;;3.27;0.80;;;13.00;99.90;;;;;;5016381;28;20188;-73
2023/12/26 08:04:23;;;;;;;2.27;0.63;;;13.00;99.90;;;;;;5029614;28;20205;-72
2023/12/26 08:06:49;;;;;;;4.37;0.90;;;13.10;99.90;;;;;;5004754;28;20275;-73
2023/12/26 08:09:15;;;;;;;6.17;0.90;;;13.10;99.90;;;;;;5030950;28;20240;-73
2023/12/26 08:11:41;;;;;;;5.23;0.93;;;13.10;99.90;;;;;;5013423;28;20618;-72
2023/12/26 08:14:06;;;;;;;1.90;0.70;;;13.10;99.90;;;;;;5012447;28;21117;-72
2023/12/26 08:16:33;;;;;;;4.97;0.90;;;13.10;99.90;;;;;;5004160;28;20540;-73
2023/12/26 08:19:00;;;;;;;4.90;1.03;;;13.20;99.90;;;;;;5038705;28;20185;-73
2023/12/26 08:21:26;;;;;;;4.13;0.70;;;13.20;99.90;;;;;;5012916;28;21145;-73
2023/12/26 08:23:52;;;;;;;2.30;0.70;;;13.20;99.90;;;;;;5030071;28;20580;-73
2023/12/26 08:26:18;;;;;;;3.40;0.70;;;13.30;99.90;;;;;;5013039;28;20197;-72
2023/12/26 08:28:44;;;;;;;5.43;0.90;;;13.30;99.90;;;;;;5030561;28;20212;-73
2023/12/26 08:31:10;;;;;;;3.37;1.70;;;13.30;99.90;;;;;;5037444;28;21438;-73
2023/12/26 08:33:37;;;;;;;3.07;0.70;;;13.30;99.90;;;;;;5030221;28;20574;-73
2023/12/26 08:36:03;;;;;;;3.10;0.70;;;13.30;99.90;;;;;;4979609;28;20236;-73
2023/12/26 08:38:29;;;;;;;2.17;0.80;;;13.40;99.90;;;;;;5013073;28;20594;-73
2023/12/26 08:40:55;;;;;;;2.23;0.60;;;13.40;99.90;;;;;;5012546;28;20946;-73
2023/12/26 08:43:22;;;;;;;4.60;0.90;;;13.40;99.90;;;;;;5029589;28;20181;-73
2023/12/26 08:45:47;;;;;;;2.23;0.90;;;13.40;99.90;;;;;;5012316;28;20620;-73
2023/12/26 08:48:13;;;;;;;3.83;0.70;;;13.40;99.90;;;;;;5030309;28;21216;-73
2023/12/26 08:50:39;;;;;;;2.47;0.80;;;13.50;99.90;;;;;;5012656;28;20254;-73
2023/12/26 08:53:05;;;;;;;4.37;1.07;;;13.50;99.90;;;;;;5020718;28;20584;-73
2023/12/26 08:55:31;;;;;;;2.87;0.97;;;13.50;99.90;;;;;;5020635;28;20209;-73
2023/12/26 08:57:56;;;;;;;2.90;0.77;;;13.50;99.90;;;;;;4996102;28;20184;-73
2023/12/26 09:00:22;;;;;;;3.90;1.10;;;13.50;99.90;;;;;;4980259;28;20216;-73
2023/12/26 09:02:48;;;;;;;2.90;0.70;;;13.50;99.90;;;;;;5012271;28;20208;-73
2023/12/26 09:05:14;;;;;;;4.10;0.70;;;13.50;99.90;;;;;;5019901;28;20628;-73
2023/12/26 09:07:40;;;;;;;2.03;0.90;;;13.60;99.90;;;;;;5030108;28;20360;-73
2023/12/26 09:10:07;;;;;;;1.93;0.73;;;13.60;99.90;;;;;;5012341;28;21234;-73
2023/12/26 09:12:33;;;;;;;3.13;0.80;;;13.60;99.90;;;;;;5011660;28;20173;-73
2023/12/26 09:14:59;;;;;;;2.17;0.80;;;13.60;99.90;;;;;;5022476;28;20619;-73
2023/12/26 09:17:25;;;;;;;3.70;0.80;;;13.60;99.90;;;;;;5022160;28;21318;-73
2023/12/26 09:19:51;;;;;;;6.57;1.20;;;13.60;99.90;;;;;;5034097;28;20192;-73
2023/12/26 09:22:16;;;;;;;3.20;0.80;;;13.70;99.90;;;;;;5033683;28;21000;-73
2023/12/26 09:24:43;;;;;;;2.87;0.90;;;13.70;99.90;;;;;;5016352;28;20586;-73
2023/12/26 09:27:09;;;;;;;4.93;1.37;;;13.70;99.90;;;;;;5024143;28;21368;-72
2023/12/26 09:29:35;;;;;;;3.40;1.00;;;13.70;99.90;;;;;;5016428;28;21175;-72
2023/12/26 09:32:01;;;;;;;5.47;1.20;;;13.70;99.90;;;;;;5026559;28;20674;-75
2023/12/26 09:34:26;;;;;;;4.10;0.90;;;13.70;99.90;;;;;;5038343;28;20529;-72
2023/12/26 09:36:53;;;;;;;5.37;0.87;;;13.70;99.90;;;;;;5033501;28;21024;-73
2023/12/26 09:39:19;;;;;;;2.10;1.03;;;13.70;99.90;;;;;;5041137;28;20189;-73
2023/12/26 09:41:53;;;;;;;5.80;1.10;;;13.70;99.90;;;;;;5015753;28;20985;-73
2023/12/26 09:44:20;;;;;;;5.30;1.43;;;13.70;99.90;;;;;;5024948;28;20583;-73
2023/12/26 09:46:46;;;;;;;6.77;1.33;;;13.70;99.90;;;;;;5040577;28;20623;-72
2023/12/26 09:49:12;;;;;;;3.47;1.90;;;13.70;99.90;;;;;;5037151;28;20627;-73
2023/12/26 09:51:44;;;;;;;5.03;1.73;;;13.70;99.90;;;;;;5036686;28;20588;-72
2023/12/26 09:54:12;;;;;;;3.23;1.07;;;13.70;99.90;;;;;;5031506;28;20584;-73
2023/12/26 09:56:42;;;;;;;2.10;1.00;;;13.70;99.90;;;;;;4982610;28;20658;-72
2023/12/26 09:59:09;;;;;;;3.10;1.07;;;13.70;99.90;;;;;;5033357;28;20584;-73
2023/12/26 10:01:35;;;;;;;2.30;1.00;;;13.60;99.90;;;;;;5014581;28;20592;-73
2023/12/26 10:04:03;;;;;;;3.27;0.90;;;13.50;99.90;;;;;;5015358;28;21073;-73
2023/12/26 10:06:30;;;;;;;5.03;1.00;;;13.60;99.90;;;;;;5016002;28;20201;-74
2023/12/26 10:08:57;;;;;;;3.40;0.93;;;13.50;99.90;;;;;;5033454;28;20642;-74
2023/12/26 10:11:24;;;;;;;3.17;1.00;;;13.40;99.90;;;;;;5015184;28;20679;-73
2023/12/26 10:13:52;;;;;;;4.97;1.17;;;13.30;99.90;;;;;;5038214;28;20177;-74
2023/12/26 10:16:19;;;;;;;5.00;1.20;;;13.30;99.90;;;;;;5006411;28;21219;-74
2023/12/26 10:18:45;;;;;;;4.60;1.33;;;13.20;99.90;;;;;;5023408;28;20580;-74
2023/12/26 10:21:12;;;;;;;3.23;1.20;;;13.30;99.90;;;;;;5040917;28;20596;-73
2023/12/26 10:23:38;;;;;;;3.20;0.90;;;13.40;99.90;;;;;;5035596;28;20648;-74
2023/12/26 10:26:04;;;;;;;5.90;1.20;;;13.50;99.90;;;;;;5036998;28;20620;-74
2023/12/26 10:28:38;;;;;;;3.37;1.00;;;13.70;99.90;;;;;;5036691;28;20616;-74
2023/12/26 10:31:14;;;;;;;3.03;0.90;;;13.80;99.90;;;;;;5034654;28;20917;-74
2023/12/26 10:33:41;;;;;;;4.60;1.37;;;14.00;99.90;;;;;;5017848;28;20977;-74
2023/12/26 10:36:10;;;;;;;4.97;2.60;;;14.10;99.90;;;;;;5052407;28;20972;-72
2023/12/26 10:38:37;;;;;;;3.60;0.90;;;14.30;99.90;;;;;;5052667;28;20588;-72
2023/12/26 10:41:25;;;;;;;2.80;0.93;;;14.30;99.90;;;;;;5032250;28;20954;-72
2023/12/26 10:43:56;;;;;;;5.93;1.67;;;14.20;99.90;;;;;;5028624;28;20938;-73
2023/12/26 10:46:23;;;;;;;2.13;0.90;;;14.30;99.90;;;;;;5034637;28;20631;-72
2023/12/26 10:48:49;;;;;;;3.43;0.90;;;14.20;99.90;;;;;;5019182;28;20735;-72
2023/12/26 10:51:19;;;;;;;3.00;1.03;;;14.20;99.90;;;;;;5056813;28;20583;-72
2023/12/26 10:54:13;;;;;;;4.90;0.90;;;14.20;99.90;;;;;;5052900;28;20592;-73
2023/12/26 10:56:40;;;;;;;5.30;0.90;;;14.10;99.90;;;;;;5015301;28;21204;-72
2023/12/26 10:59:06;;;;;;;4.30;1.00;;;14.20;99.90;;;;;;5050398;28;20580;-73
2023/12/26 13:51:53;;;;;;;6.23;1.10;;;13.40;99.90;;;;;;5052436;28;20592;-77
2023/12/26 13:54:57;;;;;;;4.07;1.50;;;13.40;99.90;;;;;;5037850;28;21228;-76
2023/12/26 13:58:00;;;;;;;10.10;2.67;;;13.40;99.90;;;;;;5056460;28;20771;-77
2023/12/26 14:01:04;;;;;;;7.33;2.43;;;13.30;99.90;;;;;;5038389;28;20611;-77
2023/12/26 14:04:08;;;;;;;4.07;1.10;;;13.30;99.90;;;;;;5048544;28;20653;-77
2023/12/26 14:07:11;;;;;;;5.27;1.40;;;13.20;99.90;;;;;;5026778;28;20614;-77
2023/12/26 14:10:14;;;;;;;4.10;1.30;;;13.10;99.90;;;;;;5018588;28;20635;-76
2023/12/26 14:13:18;;;;;;;4.23;1.70;;;13.10;99.90;;;;;;5014869;28;21149;-77
2023/12/26 14:16:23;;;;;;;8.00;3.33;;;13.00;99.90;;;;;;5023529;28;20636;-77
2023/12/26 14:19:26;;;;;;;8.27;2.90;;;13.00;99.90;;;;;;5052818;28;20595;-77
2023/12/26 14:22:29;;;;;;;9.40;2.33;;;13.00;99.90;;;;;;5053208;28;20678;-77
2023/12/26 14:25:33;;;;;;;5.90;3.37;;;12.90;99.90;;;;;;5039457;28;20630;-77
2023/12/26 14:28:36;;;;;;;4.50;1.70;;;12.90;99.90;;;;;;5011422;28;20656;-76
2023/12/26 14:31:40;;;;;;;7.50;1.50;;;12.90;99.90;;;;;;5011058;28;20650;-77
2023/12/26 14:34:43;;;;;;;6.50;2.30;;;12.80;99.90;;;;;;5042552;28;20619;-76
2023/12/26 14:37:46;;;;;;;3.97;1.70;;;12.80;99.90;;;;;;5009560;28;20647;-78
2023/12/26 14:40:50;;;;;;;4.13;1.60;;;12.80;99.90;;;;;;5033676;28;20596;-76
2023/12/26 14:43:54;;;;;;;9.50;2.40;;;12.70;99.90;;;;;;5023932;28;20630;-77
2023/12/26 14:46:57;;;;;;;9.37;3.53;;;12.70;99.90;;;;;;4996685;28;20718;-77
2023/12/26 14:50:01;;;;;;;10.17;5.07;;;12.60;99.90;;;;;;5033369;28;21231;-76
2023/12/26 14:53:04;;;;;;;8.07;4.40;;;12.60;99.90;;;;;;5050390;28;20587;-76
2023/12/26 14:56:08;;;;;;;8.13;3.23;;;12.60;99.90;;;;;;5034480;28;20681;-77
2023/12/26 14:59:11;;;;;;;11.10;5.20;;;12.50;99.90;;;;;;5002972;28;20595;-77
2023/12/26 15:01:57;;;;;;;8.70;3.60;;;12.50;99.90;;;;;;5037552;28;20678;-78
2023/12/26 15:04:23;;;;;;;9.77;3.03;;;12.50;99.90;;;;;;5043392;28;20691;-77
2023/12/26 15:06:50;;;;;;;6.73;2.60;;;12.50;99.90;;;;;;5014308;28;20292;-77
2023/12/26 15:09:15;;;;;;;8.53;4.03;;;12.50;99.90;;;;;;5020218;28;20289;-77
2023/12/26 15:11:41;;;;;;;6.30;2.53;;;12.40;99.90;;;;;;5038759;28;20676;-77
2023/12/26 15:14:12;;;;;;;7.70;2.83;;;12.40;99.90;;;;;;5046514;28;21195;-77
2023/12/26 15:16:38;;;;;;;5.37;2.37;;;12.40;99.90;;;;;;5033569;28;20918;-76
2023/12/26 15:19:03;;;;;;;5.57;2.80;;;12.40;99.90;;;;;;5025995;28;20593;-76
2023/12/26 15:21:29;;;;;;;6.80;1.97;;;12.40;99.90;;;;;;5038263;28;20269;-76
2023/12/26 15:23:55;;;;;;;4.20;2.03;;;12.30;99.90;;;;;;5044438;28;20209;-76
2023/12/26 15:26:23;;;;;;;5.83;2.00;;;12.40;99.90;;;;;;5033545;28;20201;-75
2023/12/26 15:28:49;;;;;;;7.63;3.80;;;12.30;99.90;;;;;;5050091;28;20208;-76
2023/12/26 15:31:18;;;;;;;13.63;4.67;;;12.40;99.90;;;;;;5034383;28;21204;-77
2023/12/26 15:33:49;;;;;;;10.10;3.77;;;12.30;99.90;;;;;;5051012;28;20587;-77
2023/12/26 15:36:20;;;;;;;7.93;3.75;;;12.30;99.90;;;;;;5033384;28;20630;-75
2023/12/26 15:38:46;;;;;;;8.75;4.30;;;12.30;99.90;;;;;;5040203;28;20220;-75
2023/12/26 15:41:12;;;;;;;7.93;4.20;;;12.30;99.90;;;;;;5012941;28;20269;-75
2023/12/26 15:43:38;;;;;;;14.00;5.57;;;12.20;99.90;;;;;;5012465;28;20683;-77
2023/12/26 15:46:17;;;;;;;9.93;3.70;;;12.20;99.90;;;;;;5047217;28;20627;-77